Time;durP1;ratioP1;P1;durP2;ratioP2;P2;SDS_P1;SDS_P2;PMS_P1;PMS_P2;Temp;Humidity;BMP_temperature;BMP_pressure;BME280_temperature;BME280_humidity;BME280_pressure;Samples;Min_cycle;Max_cycle;Signal;HPM_P1;HPM_P2
2024/02/18 00:00:19;;;;;;;4.80;3.10;;;;;;;3.17;79.61;101767.83;130722;1253;106459;-78
2024/02/18 00:03:44;;;;;;;4.00;3.00;;;;;;;3.12;79.23;101770.85;131001;1255;110110;-77
2024/02/18 00:06:50;;;;;;;3.70;2.90;;;;;;;3.07;79.64;101773.55;130718;1253;106566;-78
2024/02/18 00:09:56;;;;;;;5.70;3.50;;;;;;;3.05;79.40;101775.04;130603;1254;108494;-78
2024/02/18 00:13:01;;;;;;;4.50;3.00;;;;;;;3.07;79.74;101776.33;130703;1253;108329;-78
2024/02/18 00:16:07;;;;;;;5.70;3.10;;;;;;;3.12;79.40;101780.85;130668;1253;107808;-78
2024/02/18 00:19:13;;;;;;;4.70;3.30;;;;;;;3.13;79.21;101787.85;130771;1253;107653;-78
2024/02/18 00:22:18;;;;;;;4.20;3.00;;;;;;;3.15;79.22;101791.64;130527;1257;109529;-78
2024/02/18 00:25:24;;;;;;;5.90;3.60;;;;;;;3.19;78.89;101793.92;130553;1257;108613;-78
2024/02/18 00:28:32;;;;;;;4.30;3.40;;;;;;;3.24;78.91;101798.48;130594;1257;107645;-81
2024/02/18 00:31:38;;;;;;;5.70;3.70;;;;;;;3.28;78.76;101801.45;130637;1259;106510;-80
2024/02/18 00:34:43;;;;;;;4.70;3.40;;;;;;;3.28;77.78;101811.48;130846;1256;107197;-80
2024/02/18 00:37:49;;;;;;;5.30;3.80;;;;;;;3.25;78.25;101815.12;130552;1254;108981;-79
2024/02/18 00:40:54;;;;;;;4.40;3.50;;;;;;;3.29;77.67;101825.34;130529;1257;106571;-79
2024/02/18 00:44:00;;;;;;;5.70;3.50;;;;;;;3.31;77.67;101825.06;130543;1253;107488;-80
2024/02/18 00:47:06;;;;;;;4.30;3.20;;;;;;;3.35;76.86;101827.35;130558;1253;106616;-80
2024/02/18 00:50:13;;;;;;;5.60;4.00;;;;;;;3.33;76.54;101826.89;130711;1257;108732;-80
2024/02/18 00:53:19;;;;;;;5.10;3.60;;;;;;;3.33;76.94;101822.14;130538;1257;107380;-78
2024/02/18 00:56:25;;;;;;;5.00;3.80;;;;;;;3.37;77.62;101826.40;130617;1255;106443;-79
2024/02/18 00:59:30;;;;;;;4.70;3.70;;;;;;;3.39;77.29;101830.51;130575;1258;108677;-78
2024/02/18 01:02:36;;;;;;;3.40;3.10;;;;;;;3.43;77.81;101833.88;130591;1253;106155;-80
2024/02/18 01:05:42;;;;;;;5.00;3.20;;;;;;;3.45;77.63;101836.75;130857;1253;108404;-78
2024/02/18 01:08:47;;;;;;;4.70;3.30;;;;;;;3.44;77.64;101841.54;130775;1254;106648;-77
2024/02/18 01:11:53;;;;;;;3.90;2.90;;;;;;;3.40;77.32;101839.06;130788;1254;107604;-77
2024/02/18 01:14:58;;;;;;;3.70;2.80;;;;;;;3.37;77.43;101841.67;130748;1258;108504;-80
2024/02/18 01:18:04;;;;;;;3.70;2.60;;;;;;;3.38;77.96;101840.05;130652;1259;107506;-81
2024/02/18 01:21:11;;;;;;;3.80;2.70;;;;;;;3.43;77.96;101843.36;130559;1257;107720;-77
2024/02/18 01:24:16;;;;;;;4.70;2.90;;;;;;;3.52;78.05;101846.63;130548;1254;107454;-81
2024/02/18 01:27:22;;;;;;;3.60;2.70;;;;;;;3.61;77.91;101849.76;130606;1256;125074;-80
2024/02/18 01:30:27;;;;;;;4.70;3.00;;;;;;;3.65;77.54;101853.83;130708;1270;106167;-80
2024/02/18 01:33:33;;;;;;;4.20;2.60;;;;;;;3.64;77.11;101852.27;130794;1258;107229;-77
2024/02/18 01:36:38;;;;;;;3.00;2.30;;;;;;;3.57;76.96;101856.80;130778;1256;107573;-81
2024/02/18 01:39:44;;;;;;;3.30;2.60;;;;;;;3.49;76.70;101857.35;130563;1253;108454;-80
2024/02/18 01:42:49;;;;;;;4.00;2.90;;;;;;;3.41;75.61;101857.16;130736;1257;107454;-78
2024/02/18 01:45:55;;;;;;;3.00;2.50;;;;;;;3.33;75.45;101856.12;130654;1253;107598;-79
2024/02/18 01:49:01;;;;;;;3.20;2.80;;;;;;;3.26;76.07;101857.62;130562;1257;108287;-79
2024/02/18 01:52:08;;;;;;;3.20;2.90;;;;;;;3.23;75.64;101868.85;130676;1253;107663;-78
2024/02/18 01:55:15;;;;;;;2.80;2.50;;;;;;;3.17;74.99;101872.29;130682;1259;107035;-79
2024/02/18 01:58:20;;;;;;;3.30;2.60;;;;;;;3.10;75.37;101874.15;130759;1254;109044;-79
2024/02/18 02:01:27;;;;;;;2.90;2.60;;;;;;;3.06;74.84;101875.39;130642;1253;106445;-78
2024/02/18 02:04:33;;;;;;;4.00;2.60;;;;;;;3.01;74.86;101873.48;130872;1263;106655;-78
2024/02/18 02:07:39;;;;;;;3.90;2.70;;;;;;;2.98;74.50;101874.66;130753;1258;107279;-80
2024/02/18 02:10:46;;;;;;;3.30;2.00;;;;;;;2.97;75.74;101875.73;130841;1253;106905;-81
2024/02/18 02:13:51;;;;;;;2.30;1.90;;;;;;;2.98;75.15;101874.30;130865;1256;107793;-77
2024/02/18 02:16:57;;;;;;;2.80;1.80;;;;;;;3.01;75.00;101879.29;130868;1256;108547;-80
2024/02/18 02:20:03;;;;;;;2.20;1.80;;;;;;;3.02;74.48;101881.00;130764;1253;107466;-80
2024/02/18 02:23:11;;;;;;;2.30;1.60;;;;;;;3.01;73.85;101879.96;130792;1256;108605;-79
2024/02/18 02:26:18;;;;;;;2.30;1.70;;;;;;;3.03;73.76;101886.40;130846;1254;108693;-80
2024/02/18 02:29:24;;;;;;;2.70;1.80;;;;;;;3.03;73.84;101881.64;130812;1256;107792;-77
2024/02/18 02:32:31;;;;;;;2.30;1.70;;;;;;;2.99;72.49;101881.48;130753;1256;108689;-80
2024/02/18 02:35:38;;;;;;;2.40;1.70;;;;;;;2.90;72.84;101876.23;130871;1253;107571;-79
2024/02/18 02:38:43;;;;;;;1.90;1.60;;;;;;;2.91;73.56;101881.06;130846;1256;108006;-79
2024/02/18 02:41:49;;;;;;;2.20;1.70;;;;;;;2.92;73.32;101889.14;130947;1256;108548;-79
2024/02/18 02:44:54;;;;;;;2.80;1.60;;;;;;;2.90;73.17;101888.53;130961;1260;107451;-78
2024/02/18 02:48:00;;;;;;;2.00;1.80;;;;;;;2.89;73.26;101886.11;130835;1253;108607;-77
2024/02/18 02:51:06;;;;;;;2.30;1.60;;;;;;;2.89;73.43;101882.27;130748;1253;106488;-78
2024/02/18 02:54:12;;;;;;;2.50;1.90;;;;;;;2.88;73.40;101874.88;130762;1253;106830;-78
2024/02/18 02:57:17;;;;;;;2.20;1.90;;;;;;;2.90;73.49;101877.82;130786;1253;108501;-77
2024/02/18 03:00:25;;;;;;;3.10;1.90;;;;;;;2.93;73.69;101888.38;130756;1256;107666;-80
2024/02/18 03:03:30;;;;;;;2.30;1.70;;;;;;;2.93;72.45;101893.66;130752;1276;107373;-77
2024/02/18 03:06:36;;;;;;;2.10;1.50;;;;;;;2.92;72.84;101893.67;130810;1256;107996;-77
2024/02/18 03:09:41;;;;;;;2.90;1.40;;;;;;;2.92;72.53;101904.27;130800;1254;107734;-76
2024/02/18 03:12:47;;;;;;;2.00;1.60;;;;;;;2.90;72.75;101903.80;130780;1256;108622;-78
2024/02/18 03:15:53;;;;;;;1.90;1.70;;;;;;;2.88;72.39;101904.06;130828;1256;108646;-77
2024/02/18 03:18:58;;;;;;;2.30;1.50;;;;;;;2.88;72.89;101903.02;130863;1259;107660;-77
2024/02/18 03:22:05;;;;;;;2.50;2.00;;;;;;;2.88;72.39;101909.88;130881;1256;107594;-79
2024/02/18 03:25:11;;;;;;;2.50;1.70;;;;;;;2.85;72.24;101913.14;130935;1256;108672;-76
2024/02/18 03:28:16;;;;;;;2.00;1.60;;;;;;;2.87;72.62;101913.80;130997;1253;108549;-78
2024/02/18 03:31:22;;;;;;;1.90;1.50;;;;;;;2.91;72.26;101916.79;130759;1266;107447;-80
2024/02/18 03:34:28;;;;;;;1.90;1.70;;;;;;;2.91;71.67;101921.89;130834;1256;108651;-77
2024/02/18 03:37:34;;;;;;;4.10;3.40;;;;;;;2.88;71.40;101924.11;130794;1256;108649;-77
2024/02/18 03:40:40;;;;;;;2.40;1.80;;;;;;;2.88;72.52;101922.02;130838;1253;106140;-79
2024/02/18 03:43:45;;;;;;;2.10;1.50;;;;;;;2.90;71.66;101919.44;130792;1259;106223;-81
2024/02/18 03:46:51;;;;;;;2.30;1.90;;;;;;;2.90;71.78;101923.85;130851;1253;108378;-78
2024/02/18 03:49:56;;;;;;;1.80;1.50;;;;;;;2.93;72.35;101925.30;130720;1259;108175;-77
2024/02/18 03:53:02;;;;;;;2.10;1.80;;;;;;;2.97;72.13;101929.53;130769;1258;107061;-77
2024/02/18 03:56:08;;;;;;;2.60;1.50;;;;;;;3.00;72.40;101930.46;130766;1256;108907;-78
2024/02/18 03:59:16;;;;;;;1.90;1.50;;;;;;;3.02;71.89;101923.02;130806;1253;108338;-78
2024/02/18 04:02:22;;;;;;;2.00;1.50;;;;;;;3.03;72.02;101925.61;130778;1253;106188;-78
2024/02/18 04:05:28;;;;;;;2.10;1.80;;;;;;;3.07;72.41;101924.73;130761;1253;106373;-76
2024/02/18 04:08:33;;;;;;;2.00;1.60;;;;;;;3.13;71.96;101928.89;130743;1259;107136;-79
2024/02/18 04:11:39;;;;;;;3.00;1.80;;;;;;;3.17;72.15;101928.73;130817;1253;107607;-77
2024/02/18 04:14:44;;;;;;;8.10;4.10;;;;;;;3.21;72.23;101922.95;130751;1253;107870;-79
2024/02/18 04:17:51;;;;;;;6.10;3.30;;;;;;;3.26;72.21;101928.70;130875;1256;107655;-80
2024/02/18 04:20:57;;;;;;;39.80;17.50;;;;;;;3.28;72.10;101923.34;130878;1253;108584;-80
2024/02/18 04:24:03;;;;;;;18.10;7.60;;;;;;;3.32;72.26;101919.10;130896;1256;108619;-77
2024/02/18 04:27:09;;;;;;;40.30;15.60;;;;;;;3.32;71.69;101923.31;130858;1254;106400;-78
2024/02/18 04:30:15;;;;;;;18.00;8.20;;;;;;;3.30;71.16;101925.72;130734;1258;107553;-80
2024/02/18 04:33:21;;;;;;;70.70;39.10;;;;;;;3.26;71.83;101928.72;130877;1257;107107;-80
2024/02/18 04:36:26;;;;;;;73.90;38.40;;;;;;;3.23;71.44;101931.11;130895;1256;107844;-82
2024/02/18 04:39:32;;;;;;;125.50;67.20;;;;;;;3.21;71.68;101930.33;130737;1256;108455;-79
2024/02/18 04:42:37;;;;;;;90.70;49.00;;;;;;;3.22;72.17;101924.84;130920;1256;107649;-80
2024/02/18 04:45:43;;;;;;;42.40;21.90;;;;;;;3.27;72.54;101922.48;130885;1256;108745;-78
2024/02/18 04:48:50;;;;;;;27.70;14.40;;;;;;;3.30;71.72;101927.66;130809;1253;109099;-77
2024/02/18 04:51:56;;;;;;;18.70;10.00;;;;;;;3.31;72.55;101924.98;130778;1253;107726;-79
2024/02/18 04:55:02;;;;;;;19.30;11.40;;;;;;;3.40;72.56;101929.34;130741;1256;107657;-77
2024/02/18 04:58:07;;;;;;;46.00;30.00;;;;;;;3.42;71.66;101931.01;130724;1254;107596;-78
2024/02/18 05:01:13;;;;;;;31.00;20.70;;;;;;;3.37;71.41;101929.46;130648;1253;106550;-78
2024/02/18 05:04:18;;;;;;;10.10;6.00;;;;;;;3.39;72.00;101921.14;130772;1256;107939;-80
2024/02/18 05:07:24;;;;;;;4.50;2.70;;;;;;;3.40;70.41;101921.05;130877;1256;106746;-77
2024/02/18 05:10:29;;;;;;;3.50;2.50;;;;;;;3.33;70.56;101922.23;130725;1253;106923;-80
2024/02/18 05:13:36;;;;;;;9.50;6.30;;;;;;;3.29;70.82;101919.24;130932;1253;108485;-80
2024/02/18 05:16:41;;;;;;;4.60;3.00;;;;;;;3.28;71.00;101919.48;130746;1253;108713;-78
2024/02/18 05:19:47;;;;;;;9.60;7.90;;;;;;;3.29;71.41;101919.09;130760;1256;108730;-78
2024/02/18 05:22:53;;;;;;;8.60;6.70;;;;;;;3.33;71.60;101920.84;130796;1253;108899;-80
2024/02/18 05:25:59;;;;;;;9.50;7.80;;;;;;;3.37;71.31;101922.80;130752;1253;106934;-80
2024/02/18 05:29:06;;;;;;;4.60;3.10;;;;;;;3.42;71.88;101919.05;130894;1259;107229;-78
2024/02/18 05:32:11;;;;;;;3.40;2.40;;;;;;;3.48;71.54;101921.42;130785;1253;108979;-78
2024/02/18 05:35:17;;;;;;;26.90;15.70;;;;;;;3.49;71.42;101923.69;130727;1259;108738;-77
2024/02/18 05:38:23;;;;;;;13.50;7.10;;;;;;;3.52;71.26;101927.05;130806;1259;106459;-77
2024/02/18 05:41:28;;;;;;;3.80;2.40;;;;;;;3.51;69.82;101931.32;130742;1257;105803;-76
2024/02/18 05:44:34;;;;;;;3.60;2.10;;;;;;;3.41;69.56;101939.33;130816;1259;107019;-76
2024/02/18 05:47:39;;;;;;;11.80;9.60;;;;;;;3.34;70.53;101943.31;130747;1253;108192;-78
2024/02/18 05:50:45;;;;;;;6.50;4.60;;;;;;;3.32;70.81;101949.18;130529;1267;108643;-80
2024/02/18 05:53:51;;;;;;;43.30;28.20;;;;;;;3.38;71.18;101951.08;130693;1256;107814;-79
2024/02/18 05:56:56;;;;;;;11.70;7.60;;;;;;;3.46;70.76;101957.91;130588;1253;106987;-79
2024/02/18 06:00:04;;;;;;;7.90;4.90;;;;;;;3.45;70.25;101963.22;130722;1259;106471;-80
2024/02/18 06:03:11;;;;;;;6.70;3.50;;;;;;;3.43;70.66;101967.55;130800;1258;106455;-79
2024/02/18 06:06:17;;;;;;;6.50;3.50;;;;;;;3.43;70.79;101970.18;130619;1258;107510;-78
2024/02/18 06:09:23;;;;;;;7.60;3.60;;;;;;;3.49;70.75;101968.55;130679;1257;106652;-81
2024/02/18 06:12:28;;;;;;;7.10;3.80;;;;;;;3.50;70.74;101974.30;130679;1258;106425;-77
2024/02/18 06:15:35;;;;;;;19.70;9.00;;;;;;;3.52;70.86;101974.39;130708;1253;106431;-77
2024/02/18 06:18:40;;;;;;;12.00;5.10;;;;;;;3.58;70.64;101980.13;130798;1254;106671;-77
2024/02/18 06:21:46;;;;;;;6.70;2.80;;;;;;;3.59;70.37;101982.73;130544;1259;108654;-77
2024/02/18 06:24:51;;;;;;;3.60;2.50;;;;;;;3.56;70.36;101990.58;130594;1254;108659;-78
2024/02/18 06:27:57;;;;;;;5.70;2.70;;;;;;;3.54;70.14;101995.57;130585;1259;107808;-79
2024/02/18 06:31:03;;;;;;;3.30;2.20;;;;;;;3.57;70.02;101997.24;130777;1255;108272;-76
2024/02/18 06:34:09;;;;;;;2.90;2.00;;;;;;;3.58;69.98;101994.92;130680;1259;108648;-78
2024/02/18 06:37:15;;;;;;;6.10;3.60;;;;;;;3.59;69.88;101988.55;130670;1258;106392;-80
2024/02/18 06:40:21;;;;;;;5.10;3.10;;;;;;;3.58;69.34;101989.66;131093;1253;108496;-78
2024/02/18 06:43:27;;;;;;;9.20;4.50;;;;;;;3.59;69.88;101995.03;130817;1253;106842;-80
2024/02/18 06:46:33;;;;;;;6.60;4.00;;;;;;;3.64;69.97;101995.38;130768;1259;106935;-79
2024/02/18 06:49:39;;;;;;;7.70;4.90;;;;;;;3.69;70.37;102002.01;133324;1253;108139;-83
2024/02/18 06:52:45;;;;;;;5.50;4.00;;;;;;;3.76;70.20;102009.27;131244;1258;108731;-81
2024/02/18 06:55:51;;;;;;;6.30;4.60;;;;;;;3.81;70.14;102011.50;130905;1254;108008;-81
2024/02/18 06:58:56;;;;;;;5.30;3.80;;;;;;;3.84;70.07;102015.41;131129;1253;108667;-82
2024/02/18 07:02:02;;;;;;;5.10;3.00;;;;;;;3.90;69.13;102014.63;131291;1259;106968;-82
2024/02/18 07:05:09;;;;;;;3.70;2.80;;;;;;;3.89;69.28;102012.06;130898;1258;106720;-81
2024/02/18 07:08:15;;;;;;;4.40;2.80;;;;;;;3.94;69.53;102009.70;130918;1256;108563;-80
2024/02/18 07:11:24;;;;;;;4.10;2.60;;;;;;;3.99;68.23;102007.06;130945;1256;107850;-82
2024/02/18 07:14:30;;;;;;;4.20;2.80;;;;;;;3.95;68.49;102004.06;131354;1256;106596;-81
2024/02/18 07:17:35;;;;;;;5.40;3.80;;;;;;;3.98;68.32;101999.73;131006;1253;106695;-82
2024/02/18 07:20:41;;;;;;;8.50;4.40;;;;;;;3.99;68.66;102004.04;130984;1253;106344;-81
2024/02/18 07:23:47;;;;;;;8.80;4.80;;;;;;;4.01;68.17;102004.31;130808;1259;108511;-79
2024/02/18 07:26:52;;;;;;;9.10;5.40;;;;;;;4.04;68.66;102011.23;130752;1259;108763;-79
2024/02/18 07:29:58;;;;;;;7.70;4.40;;;;;;;4.09;68.75;102011.16;130836;1253;107921;-80
2024/02/18 07:33:03;;;;;;;26.00;11.90;;;;;;;4.17;68.93;102005.18;131112;1257;108688;-80
2024/02/18 07:36:10;;;;;;;29.00;11.30;;;;;;;4.23;68.89;102007.91;130604;1256;107738;-79
2024/02/18 07:39:16;;;;;;;8.90;4.10;;;;;;;4.31;68.13;102007.71;130581;1259;107508;-80
2024/02/18 07:42:21;;;;;;;6.70;3.70;;;;;;;4.36;67.89;102004.14;130912;1253;106762;-79
2024/02/18 07:45:27;;;;;;;30.40;15.70;;;;;;;4.47;68.68;102007.02;131498;1254;106486;-79
2024/02/18 07:48:32;;;;;;;9.30;4.70;;;;;;;4.66;68.30;102013.70;130928;1255;106795;-78
2024/02/18 07:51:38;;;;;;;4.50;2.70;;;;;;;4.80;68.13;102012.50;130827;1258;107600;-79
2024/02/18 07:54:48;;;;;;;3.40;2.40;;;;;;;4.83;66.29;102016.27;130829;1253;106383;-79
2024/02/18 07:57:53;;;;;;;7.50;4.00;;;;;;;4.77;66.07;102017.08;131078;1253;108377;-79
2024/02/18 08:00:59;;;;;;;3.50;2.20;;;;;;;4.72;65.90;102012.70;130651;1259;108643;-79
2024/02/18 08:04:04;;;;;;;3.00;1.80;;;;;;;4.68;66.45;102010.60;130767;1254;108781;-79
2024/02/18 08:07:10;;;;;;;4.30;2.10;;;;;;;4.65;65.27;102008.81;130778;1254;107528;-80
2024/02/18 08:10:16;;;;;;;3.10;1.80;;;;;;;4.58;64.86;102004.38;130657;1253;107670;-79
2024/02/18 08:13:22;;;;;;;3.00;2.00;;;;;;;4.61;66.16;102007.74;130855;1259;107848;-79
2024/02/18 08:16:28;;;;;;;3.90;1.80;;;;;;;4.74;66.36;102006.28;130999;1258;107855;-77
2024/02/18 08:19:34;;;;;;;3.20;1.80;;;;;;;4.86;65.57;101999.56;130863;1260;107565;-76
2024/02/18 08:22:39;;;;;;;2.00;1.30;;;;;;;4.94;63.97;102005.02;130732;1259;108724;-76
2024/02/18 08:25:45;;;;;;;2.30;1.80;;;;;;;5.03;63.59;102005.42;130664;1259;108763;-76
2024/02/18 08:28:51;;;;;;;2.50;1.70;;;;;;;5.07;63.26;102007.19;130735;1253;108288;-76
2024/02/18 08:32:00;;;;;;;2.10;1.50;;;;;;;5.04;62.04;102006.09;130761;1259;107410;-76
2024/02/18 08:35:07;;;;;;;2.30;1.70;;;;;;;5.12;63.46;102004.97;130824;1259;110443;-77
2024/02/18 08:38:12;;;;;;;2.30;1.60;;;;;;;5.19;63.71;102005.52;130720;1260;107802;-76
2024/02/18 08:41:21;;;;;;;3.50;1.90;;;;;;;5.23;62.89;102006.21;130715;1259;106877;-77
2024/02/18 08:44:27;;;;;;;2.00;1.60;;;;;;;5.25;63.24;102009.67;130842;1254;107656;-76
2024/02/18 08:47:33;;;;;;;3.20;2.20;;;;;;;5.30;63.80;102007.27;131258;1259;108638;-81
2024/02/18 08:50:38;;;;;;;4.50;2.60;;;;;;;5.38;63.56;102009.38;131807;1253;108667;-83
2024/02/18 08:53:44;;;;;;;3.50;2.10;;;;;;;5.30;61.42;102015.58;131240;1271;107344;-80
2024/02/18 08:56:49;;;;;;;3.10;2.40;;;;;;;5.24;62.81;102014.46;131087;1259;106686;-77
2024/02/18 08:59:55;;;;;;;3.30;2.20;;;;;;;5.21;61.17;102013.73;130958;1253;108067;-77
2024/02/18 09:03:00;;;;;;;2.70;2.00;;;;;;;5.12;61.42;102017.85;130701;1259;106485;-78
2024/02/18 09:06:06;;;;;;;6.40;4.60;;;;;;;5.14;61.70;102020.80;130808;1259;106513;-78
2024/02/18 09:09:12;;;;;;;2.60;2.20;;;;;;;5.25;63.36;102023.59;130654;1254;107486;-78
2024/02/18 09:12:18;;;;;;;3.40;2.40;;;;;;;5.40;62.27;102025.13;130576;1259;107377;-75
2024/02/18 09:15:23;;;;;;;3.40;2.30;;;;;;;5.50;61.88;102022.02;130842;1258;106595;-75
2024/02/18 09:18:29;;;;;;;2.50;2.20;;;;;;;5.56;60.88;102024.56;130685;1253;106530;-76
2024/02/18 09:21:35;;;;;;;3.90;3.10;;;;;;;5.71;62.90;102015.32;130648;1259;108688;-76
2024/02/18 09:24:42;;;;;;;3.40;2.70;;;;;;;6.05;63.47;102012.33;130663;1264;108657;-76
2024/02/18 09:27:48;;;;;;;7.10;4.80;;;;;;;6.39;63.55;102002.44;130621;1260;107756;-76
2024/02/18 09:30:55;;;;;;;4.90;4.10;;;;;;;6.67;63.85;102001.21;130516;1259;108672;-77
2024/02/18 09:34:00;;;;;;;3.60;3.00;;;;;;;6.91;62.56;102003.94;130744;1253;109071;-76
2024/02/18 09:37:06;;;;;;;4.10;2.80;;;;;;;6.74;60.49;102004.95;130798;1267;107812;-79
2024/02/18 09:40:14;;;;;;;3.30;2.60;;;;;;;6.48;60.66;102004.20;130720;1260;108399;-78
2024/02/18 09:43:24;;;;;;;3.70;2.60;;;;;;;6.19;59.23;102011.41;130951;1258;106945;-77
2024/02/18 09:46:32;;;;;;;3.40;2.70;;;;;;;5.82;59.04;102008.20;130832;1259;107623;-76
2024/02/18 09:49:38;;;;;;;3.00;2.70;;;;;;;5.62;60.50;102014.00;130706;1259;108773;-76
2024/02/18 09:52:45;;;;;;;3.40;2.40;;;;;;;5.46;60.25;102020.23;130677;1267;106528;-76
2024/02/18 09:55:51;;;;;;;3.40;2.50;;;;;;;5.28;60.96;102021.14;130650;1258;108677;-76
2024/02/18 09:58:57;;;;;;;3.30;2.30;;;;;;;5.19;60.16;102009.95;130795;1260;106581;-77
2024/02/18 10:02:06;;;;;;;3.10;2.30;;;;;;;5.10;59.79;101999.63;130658;1257;107691;-76
2024/02/18 10:05:12;;;;;;;2.80;2.30;;;;;;;5.04;60.91;101996.36;130868;1257;109265;-76
2024/02/18 10:08:17;;;;;;;6.10;3.00;;;;;;;5.03;60.86;101992.56;130825;1258;107762;-78
2024/02/18 10:11:23;;;;;;;160.40;63.30;;;;;;;5.14;61.41;101987.95;130935;1258;109386;-77
2024/02/18 10:14:29;;;;;;;112.60;41.30;;;;;;;5.39;62.03;101984.96;130888;1259;106517;-75
2024/02/18 10:17:35;;;;;;;16.30;6.00;;;;;;;5.68;60.86;101976.59;130832;1259;108670;-76
2024/02/18 10:20:41;;;;;;;288.30;108.60;;;;;;;5.73;58.63;101974.08;130862;1267;108667;-76
2024/02/18 10:23:47;;;;;;;150.50;54.60;;;;;;;5.90;61.64;101972.84;130848;1256;108651;-77
2024/02/18 10:26:52;;;;;;;43.50;16.00;;;;;;;6.20;61.72;101965.80;130814;1264;108679;-76
2024/02/18 10:29:58;;;;;;;16.80;6.50;;;;;;;6.41;60.73;101958.64;130937;1266;107960;-78
2024/02/18 10:33:04;;;;;;;8.20;3.90;;;;;;;6.56;61.36;101954.45;130877;1254;108438;-77
2024/02/18 10:36:12;;;;;;;6.00;2.80;;;;;;;6.60;59.95;101958.64;130905;1256;107008;-77
2024/02/18 10:39:21;;;;;;;4.80;2.40;;;;;;;6.52;60.41;101957.84;131113;1259;108490;-80
2024/02/18 10:42:29;;;;;;;3.60;2.60;;;;;;;6.48;58.20;101954.87;130776;1260;106598;-79
2024/02/18 10:45:37;;;;;;;3.60;2.70;;;;;;;6.27;57.73;101950.90;130824;1259;108704;-78
2024/02/18 10:48:44;;;;;;;3.90;2.30;;;;;;;6.06;58.67;101953.27;130614;1259;108899;-79
2024/02/18 10:51:59;;;;;;;4.80;3.10;;;;;;;5.91;56.82;101952.30;130661;1266;108697;-80
2024/02/18 10:55:10;;;;;;;5.10;2.40;;;;;;;5.66;57.58;101951.46;130604;1259;108780;-79
2024/02/18 10:58:23;;;;;;;3.60;2.50;;;;;;;5.42;58.43;101938.90;130823;1259;107687;-79
2024/02/18 11:01:33;;;;;;;2.90;2.20;;;;;;;5.29;58.46;101931.11;130719;1259;108821;-80
2024/02/18 11:04:40;;;;;;;2.90;2.30;;;;;;;5.14;57.56;101928.71;130997;1257;107722;-79
2024/02/18 11:07:45;;;;;;;3.10;2.10;;;;;;;5.04;58.75;101919.67;130790;1266;106608;-78
2024/02/18 11:10:52;;;;;;;4.80;2.90;;;;;;;5.01;58.39;101918.92;130857;1256;108693;-78
2024/02/18 11:14:26;;;;;;;3.70;2.70;;;;;;;4.93;57.98;101920.20;130773;1255;106371;-81
2024/02/18 11:17:33;;;;;;;3.20;2.70;;;;;;;4.83;58.57;101916.98;130670;1254;108415;-79
2024/02/18 11:20:40;;;;;;;4.00;2.90;;;;;;;4.81;58.88;101911.63;131010;1258;107167;-79
2024/02/18 11:23:52;;;;;;;4.90;3.80;;;;;;;4.85;58.79;101905.26;130740;1258;106492;-79
2024/02/18 11:26:58;;;;;;;5.80;4.40;;;;;;;4.90;58.13;101901.51;131258;1259;106673;-79
2024/02/18 11:30:07;;;;;;;4.90;3.50;;;;;;;5.03;59.03;101903.16;130678;1258;105581;-77
2024/02/18 11:33:18;;;;;;;3.60;2.80;;;;;;;5.13;58.25;101892.93;130736;1260;106435;-78
2024/02/18 11:36:26;;;;;;;7.80;4.90;;;;;;;5.22;58.85;101886.50;130845;1263;108368;-78
2024/02/18 11:39:32;;;;;;;44.30;23.90;;;;;;;5.30;59.65;101886.92;130819;1255;108778;-78
2024/02/18 11:42:39;;;;;;;98.80;48.40;;;;;;;5.42;59.72;101881.22;130846;1256;108314;-78
2024/02/18 11:45:49;;;;;;;34.20;16.80;;;;;;;5.57;59.26;101871.79;130881;1265;106508;-78
2024/02/18 11:48:55;;;;;;;54.00;25.90;;;;;;;5.71;59.82;101856.56;130696;1261;107699;-78
2024/02/18 11:52:01;;;;;;;61.70;29.30;;;;;;;5.88;59.73;101855.30;130583;1260;106614;-78
2024/02/18 11:55:16;;;;;;;53.30;28.50;;;;;;;6.05;59.57;101848.75;130558;1260;106412;-78
2024/02/18 11:58:23;;;;;;;13.20;7.10;;;;;;;6.18;59.35;101831.44;130765;1255;107755;-78
2024/02/18 12:01:30;;;;;;;7.60;4.90;;;;;;;6.25;59.04;101831.38;130696;1258;106412;-76
2024/02/18 12:04:37;;;;;;;7.10;4.20;;;;;;;6.38;59.59;101838.46;130751;1257;107613;-76
2024/02/18 12:07:42;;;;;;;9.40;4.50;;;;;;;6.50;59.64;101840.02;130822;1256;108684;-76
2024/02/18 12:10:49;;;;;;;4.70;3.80;;;;;;;6.61;59.58;101834.09;130807;1254;106485;-78
2024/02/18 12:13:55;;;;;;;3.50;2.80;;;;;;;6.61;56.42;101833.92;130764;1257;106310;-78
2024/02/18 12:17:00;;;;;;;4.10;3.20;;;;;;;6.46;56.27;101836.20;130742;1267;108687;-78
2024/02/18 12:20:08;;;;;;;4.70;3.30;;;;;;;6.42;57.92;101829.52;130874;1260;108623;-78
2024/02/18 12:23:13;;;;;;;3.50;2.70;;;;;;;6.59;58.23;101824.66;130876;1257;106539;-77
2024/02/18 12:26:20;;;;;;;3.50;2.90;;;;;;;6.77;57.64;101813.24;130952;1266;108673;-78
2024/02/18 12:29:25;;;;;;;4.30;3.20;;;;;;;6.90;58.08;101809.63;133183;1254;107731;-78
2024/02/18 12:32:31;;;;;;;4.50;3.30;;;;;;;6.92;56.95;101815.71;132187;1257;108707;-81
2024/02/18 12:35:37;;;;;;;7.40;5.50;;;;;;;6.93;58.61;101818.28;131368;1257;107510;-78
2024/02/18 12:38:43;;;;;;;4.90;3.60;;;;;;;7.07;58.59;101812.48;131075;1254;107608;-78
2024/02/18 12:41:48;;;;;;;4.70;3.70;;;;;;;7.17;58.45;101809.24;130751;1258;107627;-76
2024/02/18 12:44:54;;;;;;;30.50;19.80;;;;;;;7.25;58.73;101803.09;130926;1257;107513;-76
2024/02/18 12:48:00;;;;;;;11.60;6.80;;;;;;;7.33;58.94;101805.77;130860;1254;106832;-76
2024/02/18 12:51:13;;;;;;;4.80;3.40;;;;;;;7.42;58.75;101800.45;131439;1257;106773;-79
2024/02/18 12:54:20;;;;;;;22.00;13.00;;;;;;;7.44;58.34;101801.75;130740;1254;106675;-80
2024/02/18 12:57:25;;;;;;;8.70;5.50;;;;;;;7.45;58.46;101789.27;131484;1257;108696;-76
2024/02/18 13:00:31;;;;;;;12.40;8.60;;;;;;;7.46;58.71;101781.80;130684;1267;106998;-78
2024/02/18 13:03:38;;;;;;;20.60;12.70;;;;;;;7.48;58.43;101772.80;130841;1260;108588;-80
2024/02/18 13:06:44;;;;;;;40.80;20.90;;;;;;;7.46;58.04;101773.61;130803;1259;106556;-78
2024/02/18 13:09:49;;;;;;;9.40;5.80;;;;;;;7.43;58.36;101773.80;130996;1254;106836;-80
2024/02/18 13:12:55;;;;;;;6.00;4.00;;;;;;;7.43;58.05;101770.98;130939;1266;107713;-80
2024/02/18 13:16:00;;;;;;;12.20;8.50;;;;;;;7.39;58.34;101765.60;130531;1258;107517;-77
2024/02/18 13:19:06;;;;;;;8.90;5.50;;;;;;;7.36;58.11;101768.61;130528;1258;106419;-80
2024/02/18 13:22:11;;;;;;;5.40;4.40;;;;;;;7.31;57.81;101765.16;130657;1254;108458;-80
2024/02/18 13:25:17;;;;;;;4.50;3.50;;;;;;;7.27;57.93;101764.88;130613;1255;108685;-79
2024/02/18 13:28:23;;;;;;;6.60;5.40;;;;;;;7.25;57.83;101763.76;130596;1254;151239;-78
2024/02/18 13:31:30;;;;;;;5.40;4.30;;;;;;;7.23;57.70;101768.33;130780;1267;106466;-78
2024/02/18 13:34:35;;;;;;;5.00;3.30;;;;;;;7.18;57.69;101763.33;130881;1254;107062;-80
2024/02/18 13:37:41;;;;;;;5.40;3.30;;;;;;;7.09;57.67;101751.50;130854;1257;107331;-80
2024/02/18 13:40:47;;;;;;;3.90;3.50;;;;;;;7.04;57.86;101743.84;130852;1267;108644;-79
2024/02/18 13:43:52;;;;;;;4.30;3.40;;;;;;;7.00;57.85;101748.33;130895;1257;107657;-78
2024/02/18 13:47:01;;;;;;;4.60;4.00;;;;;;;6.93;57.47;101739.73;130879;1254;108238;-81
2024/02/18 13:50:10;;;;;;;4.40;3.70;;;;;;;6.91;57.88;101730.28;130869;1254;107632;-80
2024/02/18 13:53:15;;;;;;;4.00;3.40;;;;;;;6.97;57.82;101725.50;130874;1254;107685;-79
2024/02/18 13:56:21;;;;;;;7.60;6.20;;;;;;;6.99;57.66;101720.95;130896;1256;108515;-80
2024/02/18 13:59:26;;;;;;;5.90;4.60;;;;;;;7.00;57.65;101715.55;130987;1257;106800;-79
2024/02/18 14:02:32;;;;;;;6.90;6.10;;;;;;;7.03;57.61;101712.90;130726;1257;106819;-79
2024/02/18 14:05:38;;;;;;;6.20;4.80;;;;;;;7.07;57.65;101712.51;130906;1257;108705;-80
2024/02/18 14:08:43;;;;;;;4.10;3.60;;;;;;;7.11;57.66;101714.95;130845;1257;108563;-79
2024/02/18 14:11:49;;;;;;;4.80;3.80;;;;;;;7.13;57.52;101716.38;130896;1257;107796;-81